Time;durP1;ratioP1;P1;durP2;ratioP2;P2;SDS_P1;SDS_P2;PMS_P1;PMS_P2;Temp;Humidity;BMP_temperature;BMP_pressure;BME280_temperature;BME280_humidity;BME280_pressure;Samples;Min_cycle;Max_cycle;Signal;HPM_P1;HPM_P2
2022/02/10 00:13:36;;;;;;;4.00;3.70;;;5.10;99.90;;;;;;5048896;28;20245;-75
2022/02/10 00:16:49;;;;;;;3.83;3.53;;;5.10;99.90;;;;;;5061596;28;20305;-74
2022/02/10 00:22:06;;;;;;;3.60;3.30;;;5.00;99.90;;;;;;5062370;28;20229;-74
2022/02/10 00:25:11;;;;;;;3.55;3.25;;;5.00;99.90;;;;;;5063870;28;20225;-74
2022/02/10 00:35:53;;;;;;;3.42;3.20;;;4.90;99.90;;;;;;5063378;28;20276;-74
2022/02/10 00:38:23;;;;;;;3.63;3.33;;;4.90;99.90;;;;;;5059305;28;20202;-73
2022/02/10 00:40:50;;;;;;;3.60;3.40;;;4.80;99.90;;;;;;5043378;28;20919;-73
2022/02/10 00:43:17;;;;;;;4.32;4.03;;;4.80;99.90;;;;;;5047470;28;20195;-74
2022/02/10 00:45:47;;;;;;;3.70;3.50;;;4.80;99.90;;;;;;5047247;28;20223;-75
2022/02/10 00:48:14;;;;;;;3.67;3.35;;;4.80;99.90;;;;;;5058140;28;20198;-74
2022/02/10 00:50:44;;;;;;;3.92;3.63;;;4.70;99.90;;;;;;5064866;28;20371;-74
2022/02/10 00:53:17;;;;;;;3.50;3.20;;;4.70;99.90;;;;;;5064501;28;20199;-75
2022/02/10 00:55:46;;;;;;;3.72;3.50;;;4.60;99.90;;;;;;5064300;28;20288;-73
2022/02/10 00:58:22;;;;;;;3.53;3.33;;;4.60;99.90;;;;;;5064970;28;20198;-73
2022/02/10 01:31:04;;;;;;;3.75;3.47;;;4.20;99.90;;;;;;5046254;28;20194;-75
2022/02/10 01:33:34;;;;;;;4.00;3.70;;;4.20;99.90;;;;;;5047240;28;20194;-72
2022/02/10 01:36:01;;;;;;;3.60;3.33;;;4.20;99.90;;;;;;5046050;28;20226;-73
2022/02/10 01:38:28;;;;;;;4.63;4.30;;;4.20;99.90;;;;;;5046809;28;20202;-74
2022/02/10 01:41:29;;;;;;;3.60;3.30;;;4.20;99.90;;;;;;5046733;28;20202;-73
2022/02/10 01:58:07;;;;;;;3.42;3.20;;;4.10;99.90;;;;;;5065014;28;20738;-72
2022/02/10 02:03:24;;;;;;;3.60;3.30;;;4.10;99.90;;;;;;5063815;28;20239;-73
2022/02/10 02:05:58;;;;;;;3.25;3.03;;;4.10;99.90;;;;;;5064460;28;20298;-77
2022/02/10 02:08:27;;;;;;;3.90;3.60;;;4.00;99.90;;;;;;5065410;28;20194;-73
2022/02/10 02:10:55;;;;;;;3.20;2.90;;;4.00;99.90;;;;;;5065866;28;20210;-77
2022/02/10 02:13:23;;;;;;;3.70;3.50;;;4.00;99.90;;;;;;5065439;28;20749;-73
2022/02/10 02:15:51;;;;;;;3.60;3.40;;;3.90;99.90;;;;;;5065847;28;20222;-74
2022/02/10 02:18:18;;;;;;;3.42;3.20;;;3.90;99.90;;;;;;5062415;28;20809;-74
2022/02/10 02:20:51;;;;;;;3.22;3.03;;;3.90;99.90;;;;;;5067089;28;20636;-73
2022/02/10 02:23:22;;;;;;;4.18;3.88;;;3.90;99.90;;;;;;5064760;28;21046;-74
2022/02/10 02:25:54;;;;;;;3.90;3.70;;;3.90;99.90;;;;;;5063809;28;20222;-73
2022/02/10 02:28:21;;;;;;;3.63;3.42;;;3.80;99.90;;;;;;5065714;28;20198;-75
2022/02/10 02:30:52;;;;;;;4.10;3.72;;;3.80;99.90;;;;;;5063252;28;20236;-73
2022/02/10 02:36:34;;;;;;;4.00;3.80;;;3.80;99.90;;;;;;5065941;28;20225;-73
2022/02/10 03:06:29;;;;;;;3.10;2.90;;;3.60;99.90;;;;;;5051149;28;20279;-73
2022/02/10 03:08:59;;;;;;;3.65;3.45;;;3.60;99.90;;;;;;5050145;28;20254;-72
2022/02/10 03:11:27;;;;;;;3.65;3.35;;;3.60;99.90;;;;;;5049724;28;20211;-73
2022/02/10 03:13:58;;;;;;;3.95;3.75;;;3.60;99.90;;;;;;5049651;28;20203;-72
2022/02/10 03:17:03;;;;;;;3.25;3.05;;;3.60;99.90;;;;;;5044802;28;20348;-73
2022/02/10 03:19:43;;;;;;;3.83;3.53;;;3.60;99.90;;;;;;5047174;28;20222;-72
2022/02/10 03:22:30;;;;;;;4.00;3.70;;;3.50;99.90;;;;;;5046725;28;20673;-76
2022/02/10 04:06:18;;;;;;;4.93;4.50;;;3.30;99.90;;;;;;5075324;22;20527;-92
2022/02/10 04:09:20;;;;;;;4.75;4.35;;;3.30;99.90;;;;;;5047827;28;20207;-91
2022/02/10 04:12:10;;;;;;;4.45;4.05;;;3.30;99.90;;;;;;5069714;28;20221;-91
2022/02/10 04:14:44;;;;;;;4.55;3.72;;;3.20;99.90;;;;;;5071935;28;20610;-90
2022/02/10 04:17:36;;;;;;;3.58;3.28;;;3.20;99.90;;;;;;5061572;28;20229;-90
2022/02/10 04:20:24;;;;;;;4.22;3.85;;;3.10;99.90;;;;;;5049258;28;20231;-91
2022/02/10 04:23:03;;;;;;;3.88;3.58;;;3.10;99.90;;;;;;5056682;28;20217;-91
2022/02/10 04:25:46;;;;;;;4.45;4.15;;;3.10;99.90;;;;;;5088467;28;20194;-91
2022/02/10 04:28:27;;;;;;;4.63;4.32;;;3.10;99.90;;;;;;5048530;28;20309;-90
2022/02/10 04:31:15;;;;;;;3.83;3.55;;;3.10;99.90;;;;;;5046538;28;20274;-91
2022/02/10 04:55:58;;;;;;;4.03;3.67;;;2.90;99.90;;;;;;5028060;28;20404;-91
2022/02/10 04:58:51;;;;;;;4.03;3.72;;;2.90;99.90;;;;;;5026543;28;20972;-90
2022/02/10 05:01:33;;;;;;;4.07;3.78;;;2.80;99.90;;;;;;5026461;28;20195;-91
2022/02/10 05:07:20;;;;;;;3.95;3.65;;;2.80;99.90;;;;;;5055711;28;20253;-89
2022/02/10 05:21:06;;;;;;;5.28;4.88;;;2.60;99.90;;;;;;5052548;28;20232;-90
2022/02/10 05:23:56;;;;;;;5.32;4.93;;;2.60;99.90;;;;;;5034305;28;20221;-91
2022/02/10 05:32:17;;;;;;;4.20;3.90;;;2.50;99.90;;;;;;5043428;28;20286;-91
2022/02/10 05:34:50;;;;;;;4.43;4.13;;;2.60;99.90;;;;;;5050132;28;20427;-89
2022/02/10 05:37:19;;;;;;;4.03;3.72;;;2.60;99.90;;;;;;5045580;28;20268;-91
2022/02/10 05:39:51;;;;;;;4.20;3.90;;;2.60;99.90;;;;;;5050204;28;20260;-91
2022/02/10 05:42:45;;;;;;;7.05;6.35;;;2.50;99.90;;;;;;5048994;28;20305;-91
2022/02/10 05:45:21;;;;;;;11.38;8.60;;;2.60;99.90;;;;;;5049279;28;20199;-91
2022/02/10 05:56:23;;;;;;;11.75;8.70;;;2.40;99.90;;;;;;5039362;28;20216;-90
2022/02/10 05:59:18;;;;;;;10.80;8.18;;;2.40;99.90;;;;;;5040274;28;20224;-91
2022/02/10 06:49:14;;;;;;;4.88;4.47;;;2.30;99.90;;;;;;5052275;28;20190;-90
2022/02/10 06:51:46;;;;;;;5.07;4.57;;;2.30;99.90;;;;;;5022060;28;20220;-91
2022/02/10 06:54:22;;;;;;;5.72;5.22;;;2.30;99.90;;;;;;5025173;28;20203;-90
2022/02/10 07:08:17;;;;;;;5.45;5.05;;;2.30;99.90;;;;;;5030923;28;20222;-90
2022/02/10 07:11:19;;;;;;;4.72;4.32;;;2.30;99.90;;;;;;5036251;28;20218;-90
2022/02/10 07:14:21;;;;;;;4.53;4.18;;;2.30;99.90;;;;;;5046566;28;20226;-90
2022/02/10 07:42:56;;;;;;;4.80;4.50;;;2.40;99.90;;;;;;5029403;28;20216;-90
2022/02/10 07:57:01;;;;;;;5.97;5.38;;;8.80;99.90;;;;;;5045675;28;20945;-90
2022/02/10 09:03:36;;;;;;;6.07;4.22;;;12.40;95.90;;;;;;5119192;27;20341;-74
2022/02/10 09:06:10;;;;;;;5.93;4.03;;;12.30;95.90;;;;;;5123189;27;20223;-74
2022/02/10 09:09:25;;;;;;;4.45;4.05;;;12.30;95.90;;;;;;5123577;27;20228;-75
2022/02/10 09:14:58;;;;;;;4.45;3.85;;;12.60;96.00;;;;;;5120429;27;20203;-74
2022/02/10 09:20:37;;;;;;;4.65;4.25;;;12.80;95.50;;;;;;5121107;27;20218;-74
2022/02/10 09:55:00;;;;;;;4.85;4.18;;;14.00;93.00;;;;;;5091243;27;20203;-75
2022/02/10 09:57:33;;;;;;;4.53;4.22;;;14.00;93.00;;;;;;5121062;27;20224;-75
2022/02/10 10:00:14;;;;;;;5.55;5.05;;;14.00;92.90;;;;;;5116149;27;20209;-75
2022/02/10 10:02:46;;;;;;;5.00;4.57;;;13.80;93.00;;;;;;5122335;27;20298;-76
2022/02/10 10:05:25;;;;;;;4.70;4.30;;;14.00;93.00;;;;;;5123582;27;20211;-76
2022/02/10 10:08:11;;;;;;;6.28;4.60;;;14.30;93.00;;;;;;5120533;27;20837;-76
2022/02/10 10:10:56;;;;;;;4.97;4.57;;;14.40;93.00;;;;;;5108803;27;20201;-76
2022/02/10 10:13:44;;;;;;;4.85;4.30;;;14.20;93.00;;;;;;5106844;27;20224;-75
2022/02/10 10:16:46;;;;;;;5.55;5.07;;;14.10;93.10;;;;;;5106232;27;20216;-76
2022/02/10 10:19:27;;;;;;;5.45;4.85;;;13.90;93.60;;;;;;5105325;27;20220;-77
2022/02/10 10:22:06;;;;;;;7.88;5.25;;;14.20;93.40;;;;;;5102813;27;20711;-76
2022/02/10 10:24:52;;;;;;;6.65;5.13;;;14.40;93.10;;;;;;5105817;27;20204;-76
2022/02/10 10:27:37;;;;;;;5.45;4.93;;;14.40;92.90;;;;;;5106091;27;20282;-77
2022/02/10 10:52:24;;;;;;;6.10;5.43;;;14.70;92.80;;;;;;5102043;28;20235;-74
2022/02/10 10:55:04;;;;;;;4.93;4.53;;;14.60;92.20;;;;;;5104307;27;20213;-74
2022/02/10 10:57:38;;;;;;;7.10;5.32;;;14.70;92.40;;;;;;5103650;27;20246;-73
2022/02/10 11:00:26;;;;;;;5.35;4.82;;;14.90;91.70;;;;;;5101644;27;20316;-74
2022/02/10 11:37:14;;;;;;;14.52;3.97;;;13.40;90.80;;;;;;5103017;27;20219;-75
2022/02/10 11:40:13;;;;;;;4.07;3.67;;;13.10;91.50;;;;;;5101935;27;20212;-74
2022/02/10 11:42:54;;;;;;;6.18;3.60;;;13.10;91.00;;;;;;5104096;27;20199;-74
2022/02/10 13:28:53;;;;;;;5.88;4.43;;;14.70;90.90;;;;;;5096370;28;20746;-70
2022/02/10 13:48:45;;;;;;;5.13;4.63;;;14.40;92.10;;;;;;5106181;27;20607;-71
2022/02/10 14:10:59;;;;;;;6.70;4.93;;;13.40;94.70;;;;;;5104600;27;20269;-70
2022/02/10 14:13:31;;;;;;;5.00;4.50;;;13.70;94.40;;;;;;5104798;27;20235;-71
2022/02/10 14:16:25;;;;;;;5.28;4.57;;;13.90;94.30;;;;;;5107526;27;20213;-72
2022/02/10 14:19:01;;;;;;;5.90;4.75;;;14.10;94.10;;;;;;5104432;27;20231;-71
2022/02/10 14:21:33;;;;;;;6.28;4.93;;;14.40;94.10;;;;;;5111489;27;20567;-71
2022/02/10 14:26:48;;;;;;;6.55;5.32;;;14.50;94.10;;;;;;5106996;27;20210;-71
2022/02/10 14:29:15;;;;;;;7.55;5.43;;;14.50;94.30;;;;;;5107560;27;20213;-71
2022/02/10 14:31:44;;;;;;;5.38;4.65;;;14.30;94.60;;;;;;5109439;27;20195;-71
2022/02/10 14:34:19;;;;;;;7.18;5.07;;;14.30;95.10;;;;;;5103303;27;22310;-71
2022/02/10 14:36:48;;;;;;;6.93;5.13;;;14.40;94.70;;;;;;5107116;27;20197;-70
2022/02/10 14:39:40;;;;;;;6.70;4.55;;;14.20;94.90;;;;;;5105152;27;20364;-71
2022/02/10 14:42:34;;;;;;;8.30;5.65;;;14.10;95.40;;;;;;5106578;27;20201;-71
2022/02/10 15:51:35;;;;;;;6.47;5.25;;;11.20;99.90;;;;;;5082757;28;20353;-70
2022/02/10 15:54:22;;;;;;;6.45;5.10;;;10.90;99.90;;;;;;5084056;28;20599;-71
2022/02/10 16:10:55;;;;;;;6.85;6.13;;;10.60;99.90;;;;;;5082059;28;20279;-72
2022/02/10 16:19:06;;;;;;;10.88;8.27;;;10.30;99.90;;;;;;5013601;28;20226;-76
2022/02/10 16:21:39;;;;;;;12.30;8.35;;;10.10;99.90;;;;;;5071099;28;20229;-77
2022/02/10 16:24:16;;;;;;;8.55;6.90;;;10.00;99.90;;;;;;5081649;28;20209;-74
2022/02/10 16:26:55;;;;;;;8.65;6.63;;;9.90;99.90;;;;;;5079528;28;20243;-74
2022/02/10 16:29:25;;;;;;;10.02;7.45;;;9.80;99.90;;;;;;5085860;28;20193;-76
2022/02/10 16:31:52;;;;;;;9.20;6.63;;;9.80;99.90;;;;;;5078397;28;20221;-75
2022/02/10 16:34:20;;;;;;;7.95;5.72;;;9.80;99.90;;;;;;5079998;28;20225;-72
2022/02/10 16:36:48;;;;;;;7.28;6.53;;;9.80;99.90;;;;;;5081173;28;20574;-73
2022/02/10 16:39:16;;;;;;;7.72;6.72;;;9.80;99.90;;;;;;5085159;28;20206;-75
2022/02/10 16:41:44;;;;;;;9.98;7.80;;;9.80;99.90;;;;;;5094858;28;20711;-76
2022/02/10 16:44:11;;;;;;;7.85;6.55;;;9.80;99.90;;;;;;5100868;28;20196;-75
2022/02/10 16:46:39;;;;;;;7.70;6.90;;;9.70;99.90;;;;;;5101044;28;20636;-78
2022/02/10 16:49:07;;;;;;;7.20;6.22;;;9.60;99.90;;;;;;5102136;28;20200;-73
2022/02/10 16:51:35;;;;;;;7.45;6.18;;;9.70;99.90;;;;;;5103429;28;20221;-77
2022/02/10 16:54:08;;;;;;;7.70;5.80;;;9.70;99.90;;;;;;5100877;28;20303;-72
2022/02/10 16:56:46;;;;;;;7.85;6.57;;;9.70;99.90;;;;;;5102087;28;20289;-75
2022/02/10 16:59:27;;;;;;;9.10;7.78;;;9.60;99.90;;;;;;5104353;28;20668;-73
2022/02/10 17:02:17;;;;;;;9.27;7.28;;;9.60;99.90;;;;;;5102870;28;20562;-72
2022/02/10 17:05:06;;;;;;;9.02;8.00;;;9.50;99.90;;;;;;5101333;28;20220;-73
2022/02/10 17:19:10;;;;;;;11.90;8.48;;;9.20;99.90;;;;;;5083356;28;20216;-77
2022/02/10 17:27:24;;;;;;;8.43;6.93;;;9.20;99.90;;;;;;5104137;28;20199;-73
2022/02/10 17:32:52;;;;;;;8.60;7.45;;;9.10;99.90;;;;;;5064442;28;20200;-75
2022/02/10 17:35:33;;;;;;;9.02;7.15;;;9.10;99.90;;;;;;5091552;28;20232;-73
2022/02/10 17:46:23;;;;;;;10.80;7.80;;;9.00;99.90;;;;;;5078375;28;20221;-75
2022/02/10 17:51:55;;;;;;;10.02;7.97;;;9.00;99.90;;;;;;5102227;27;20726;-75
2022/02/10 17:54:23;;;;;;;8.73;7.28;;;9.00;99.90;;;;;;5104174;28;20228;-72
2022/02/10 17:56:51;;;;;;;7.93;7.03;;;9.00;99.90;;;;;;5103271;27;20197;-75
2022/02/10 17:59:20;;;;;;;12.13;7.22;;;9.00;99.90;;;;;;5101343;28;20417;-75
2022/02/10 18:01:48;;;;;;;8.60;7.80;;;9.00;99.90;;;;;;5104147;27;20312;-70
2022/02/10 18:04:16;;;;;;;10.13;9.02;;;9.00;99.90;;;;;;5093334;27;20213;-71
2022/02/10 18:06:47;;;;;;;13.73;9.15;;;9.00;99.90;;;;;;5081855;28;20200;-74
2022/02/10 18:15:07;;;;;;;13.90;11.65;;;8.80;99.90;;;;;;5102940;27;20220;-73
2022/02/10 18:17:37;;;;;;;14.27;10.43;;;8.70;99.90;;;;;;5104428;27;20583;-74
2022/02/10 18:20:10;;;;;;;10.93;9.43;;;8.70;99.90;;;;;;5104577;27;20919;-71
2022/02/10 18:22:50;;;;;;;21.92;14.52;;;8.70;99.90;;;;;;5109027;27;20254;-71
2022/02/10 18:33:37;;;;;;;17.50;15.10;;;8.70;99.90;;;;;;5102131;28;20196;-72
2022/02/10 19:09:09;;;;;;;13.02;11.00;;;8.70;99.90;;;;;;5067767;28;20256;-76
2022/02/10 19:11:44;;;;;;;13.57;10.77;;;8.70;99.90;;;;;;5089928;28;20197;-76
2022/02/10 19:14:11;;;;;;;11.95;10.05;;;8.70;99.90;;;;;;5086932;28;20244;-77
2022/02/10 19:16:38;;;;;;;9.80;8.85;;;8.70;99.90;;;;;;5083118;28;20240;-75
2022/02/10 19:19:05;;;;;;;10.38;9.30;;;8.70;99.90;;;;;;5077573;28;20217;-75
2022/02/10 19:21:33;;;;;;;10.60;9.43;;;8.70;99.90;;;;;;5080165;28;20232;-76
2022/02/10 19:24:00;;;;;;;10.93;9.82;;;8.70;99.90;;;;;;5080906;28;20703;-77
2022/02/10 19:26:27;;;;;;;10.38;9.32;;;8.60;99.90;;;;;;5083247;28;20213;-76
2022/02/10 19:28:55;;;;;;;11.88;9.00;;;8.60;99.90;;;;;;5086226;28;20297;-76
2022/02/10 19:31:24;;;;;;;11.15;9.07;;;8.60;99.90;;;;;;5085457;28;20492;-76
2022/02/10 19:33:53;;;;;;;13.75;9.25;;;8.60;99.90;;;;;;5081503;28;20668;-75
2022/02/10 19:36:20;;;;;;;10.50;9.43;;;8.50;99.90;;;;;;5085104;28;20249;-78
2022/02/10 19:38:47;;;;;;;13.93;11.15;;;8.50;99.90;;;;;;5091444;28;20197;-75
2022/02/10 19:41:14;;;;;;;12.57;11.27;;;8.50;99.90;;;;;;5079987;28;20220;-77
2022/02/10 19:43:42;;;;;;;11.15;10.00;;;8.40;99.90;;;;;;5080490;28;20461;-77
2022/02/10 19:46:11;;;;;;;10.88;9.77;;;8.40;99.90;;;;;;5084135;28;20560;-76
2022/02/10 19:48:39;;;;;;;20.63;15.73;;;8.40;99.90;;;;;;5081664;28;20202;-75
2022/02/10 19:51:06;;;;;;;19.30;14.40;;;8.40;99.90;;;;;;5084058;28;20186;-74
2022/02/10 19:53:34;;;;;;;15.57;12.77;;;8.20;99.90;;;;;;5083800;28;20197;-78
2022/02/10 19:56:02;;;;;;;13.88;11.18;;;8.10;99.90;;;;;;5081764;28;20217;-76
2022/02/10 19:58:30;;;;;;;13.02;10.88;;;8.00;99.90;;;;;;5082566;28;20248;-77
2022/02/10 20:00:59;;;;;;;12.15;10.13;;;7.90;99.90;;;;;;5080625;28;20237;-77
2022/02/10 20:03:31;;;;;;;12.10;10.10;;;7.90;99.90;;;;;;5083261;28;20223;-75
2022/02/10 20:06:00;;;;;;;11.80;10.57;;;7.90;99.90;;;;;;5076365;28;20218;-75
2022/02/10 20:08:27;;;;;;;11.95;9.30;;;7.90;99.90;;;;;;5083928;28;20193;-76
2022/02/10 20:10:56;;;;;;;9.60;8.70;;;7.80;99.90;;;;;;5080968;28;20225;-78
2022/02/10 20:13:25;;;;;;;11.38;9.80;;;7.70;99.90;;;;;;5084512;28;20202;-77
2022/02/10 20:15:53;;;;;;;10.40;9.30;;;7.70;99.90;;;;;;5084287;28;20240;-75
2022/02/10 20:18:20;;;;;;;10.20;9.15;;;7.70;99.90;;;;;;5077515;28;20284;-76
2022/02/10 20:20:53;;;;;;;10.45;9.35;;;7.70;99.90;;;;;;5081035;28;20275;-75
2022/02/10 20:23:21;;;;;;;11.07;9.98;;;7.70;99.90;;;;;;5075519;28;20197;-76
2022/02/10 20:25:48;;;;;;;10.80;9.68;;;7.60;99.90;;;;;;5082399;28;20217;-75
2022/02/10 20:28:17;;;;;;;12.50;9.63;;;7.60;99.90;;;;;;5083597;28;20197;-77
2022/02/10 20:30:44;;;;;;;11.23;10.13;;;7.50;99.90;;;;;;5099189;28;20209;-77
2022/02/10 20:33:11;;;;;;;12.38;11.15;;;7.50;99.90;;;;;;5088030;28;20629;-77
2022/02/10 20:35:43;;;;;;;11.90;10.38;;;7.50;99.90;;;;;;5085109;28;20723;-75
2022/02/10 20:38:13;;;;;;;10.20;9.20;;;7.40;99.90;;;;;;5084089;28;20280;-75
2022/02/10 20:40:43;;;;;;;11.65;9.80;;;7.40;99.90;;;;;;5078172;28;20565;-78
2022/02/10 20:43:10;;;;;;;11.75;10.65;;;7.40;99.90;;;;;;5081399;28;20268;-77
2022/02/10 20:45:37;;;;;;;12.27;10.45;;;7.40;99.90;;;;;;5104450;27;20323;-78
2022/02/10 20:48:06;;;;;;;10.68;9.60;;;7.40;99.90;;;;;;5105887;28;20611;-74
2022/02/10 20:50:34;;;;;;;11.30;9.00;;;7.40;99.90;;;;;;5091218;28;20217;-78
2022/02/10 20:53:01;;;;;;;10.40;9.23;;;7.40;99.90;;;;;;5084170;28;20217;-76
2022/02/10 20:55:29;;;;;;;9.77;8.80;;;7.40;99.90;;;;;;5084142;28;20294;-77
2022/02/10 20:57:56;;;;;;;11.80;9.55;;;7.30;99.90;;;;;;5084129;28;20197;-76
2022/02/10 21:00:29;;;;;;;10.73;9.27;;;7.30;99.90;;;;;;5087339;28;20287;-77
2022/02/10 21:02:57;;;;;;;10.50;9.40;;;7.30;99.90;;;;;;5082830;28;20221;-77
2022/02/10 21:05:33;;;;;;;9.10;8.20;;;7.30;99.90;;;;;;5090387;28;20225;-77
2022/02/10 21:08:10;;;;;;;10.35;9.00;;;7.30;99.90;;;;;;5088917;28;20549;-77
2022/02/10 21:10:41;;;;;;;8.75;7.95;;;7.30;99.90;;;;;;5081161;28;20217;-77
2022/02/10 21:13:10;;;;;;;9.32;7.43;;;7.30;99.90;;;;;;5088317;28;20257;-75
2022/02/10 21:15:42;;;;;;;8.93;7.65;;;7.30;99.90;;;;;;5083522;28;20729;-76
2022/02/10 21:18:11;;;;;;;10.70;9.60;;;7.40;99.90;;;;;;5080195;28;20197;-80
2022/02/10 21:20:38;;;;;;;8.93;8.00;;;7.40;99.90;;;;;;5099356;28;20726;-76
2022/02/10 21:23:15;;;;;;;10.80;9.00;;;7.40;99.90;;;;;;5114553;28;20243;-75
2022/02/10 21:25:45;;;;;;;10.80;9.63;;;7.40;99.90;;;;;;5103166;28;20212;-76
2022/02/10 21:28:18;;;;;;;10.27;8.65;;;7.40;99.90;;;;;;5103474;28;20201;-76
2022/02/10 21:30:48;;;;;;;8.40;7.63;;;7.40;99.90;;;;;;5100746;28;20273;-75
2022/02/10 21:33:23;;;;;;;11.00;8.32;;;7.50;99.90;;;;;;5104924;28;20201;-79
2022/02/10 21:36:42;;;;;;;9.48;7.60;;;7.50;99.90;;;;;;5105499;28;20631;-76
2022/02/10 21:39:20;;;;;;;9.20;8.30;;;7.50;99.90;;;;;;5103571;28;20190;-78
2022/02/10 21:47:42;;;;;;;8.63;7.72;;;7.40;99.90;;;;;;5065010;28;20211;-76
2022/02/10 21:56:03;;;;;;;8.60;7.78;;;7.30;99.90;;;;;;5089629;28;20224;-78
2022/02/10 22:09:53;;;;;;;9.88;8.63;;;7.40;99.90;;;;;;5112250;27;20223;-75
2022/02/10 22:20:46;;;;;;;8.90;8.00;;;7.30;99.90;;;;;;5109741;27;20219;-76
2022/02/10 22:23:20;;;;;;;9.02;7.72;;;7.40;99.90;;;;;;5110066;27;20200;-76
2022/02/10 22:25:49;;;;;;;8.52;7.53;;;7.40;99.90;;;;;;5110241;27;20212;-77
2022/02/10 22:28:31;;;;;;;8.60;7.53;;;7.40;99.90;;;;;;5109882;27;20197;-77
2022/02/10 22:31:16;;;;;;;8.77;7.88;;;7.40;99.90;;;;;;5105611;28;20626;-77
2022/02/10 22:33:54;;;;;;;9.00;7.93;;;7.30;99.90;;;;;;5103346;28;20201;-76
2022/02/10 22:36:22;;;;;;;8.63;7.57;;;7.30;99.90;;;;;;5109334;28;20225;-75
2022/02/10 22:38:53;;;;;;;10.77;8.73;;;7.30;99.90;;;;;;5107778;28;20200;-77
2022/02/10 22:41:20;;;;;;;9.70;8.43;;;7.30;99.90;;;;;;5109231;27;20848;-76
2022/02/10 22:43:50;;;;;;;10.45;8.55;;;7.30;99.90;;;;;;5110478;27;20204;-76
2022/02/10 22:46:20;;;;;;;8.52;7.68;;;7.20;99.90;;;;;;5104257;27;20269;-76
2022/02/10 22:48:48;;;;;;;8.73;7.82;;;7.20;99.90;;;;;;5107139;27;20204;-77
2022/02/10 22:51:17;;;;;;;8.98;8.18;;;7.20;99.90;;;;;;5105346;28;20734;-77
2022/02/10 22:53:45;;;;;;;8.02;7.30;;;7.20;99.90;;;;;;5111970;27;20201;-76
2022/02/10 22:56:14;;;;;;;8.63;7.80;;;7.20;99.90;;;;;;5106981;27;20221;-76
2022/02/10 22:58:41;;;;;;;8.30;7.50;;;7.20;99.90;;;;;;5107296;28;20200;-76
2022/02/10 23:01:10;;;;;;;8.20;7.50;;;7.20;99.90;;;;;;5106797;27;20224;-77
2022/02/10 23:03:41;;;;;;;7.70;6.72;;;7.20;99.90;;;;;;5109088;28;20257;-76
2022/02/10 23:06:09;;;;;;;8.90;7.30;;;7.20;99.90;;;;;;5106913;28;20304;-76
2022/02/10 23:08:37;;;;;;;8.75;7.63;;;7.30;99.90;;;;;;5114304;28;20205;-79
2022/02/10 23:11:05;;;;;;;9.27;8.32;;;7.30;99.90;;;;;;5093353;28;20263;-76
2022/02/10 23:13:34;;;;;;;11.48;8.75;;;7.30;99.90;;;;;;5086512;28;20202;-78
2022/02/10 23:16:03;;;;;;;10.60;8.88;;;7.20;99.90;;;;;;5097369;27;20712;-78
2022/02/10 23:18:31;;;;;;;8.68;7.53;;;7.10;99.90;;;;;;5109804;27;20197;-77
2022/02/10 23:21:02;;;;;;;9.00;8.20;;;7.10;99.90;;;;;;5106679;27;20224;-79
2022/02/10 23:23:31;;;;;;;9.23;8.05;;;7.10;99.90;;;;;;5110833;27;20200;-76
2022/02/10 23:26:00;;;;;;;9.80;7.88;;;7.00;99.90;;;;;;5109362;27;20224;-77
2022/02/10 23:28:29;;;;;;;8.57;7.68;;;7.00;99.90;;;;;;5115519;27;20659;-76
2022/02/10 23:30:58;;;;;;;9.40;8.50;;;7.00;99.90;;;;;;5109565;27;20304;-75
2022/02/10 23:33:28;;;;;;;9.77;8.88;;;6.90;99.90;;;;;;5107333;27;20197;-78
2022/02/10 23:38:51;;;;;;;8.77;7.85;;;6.80;99.90;;;;;;5104024;27;20200;-76
2022/02/10 23:44:12;;;;;;;8.32;7.53;;;6.70;99.90;;;;;;5069107;27;20310;-76
2022/02/10 23:46:39;;;;;;;9.55;8.68;;;6.80;99.90;;;;;;5107072;27;20243;-76
2022/02/10 23:49:07;;;;;;;8.55;7.72;;;6.80;99.90;;;;;;5106853;28;20643;-75
2022/02/10 23:51:41;;;;;;;9.23;7.82;;;6.80;99.90;;;;;;5107372;27;20231;-75
2022/02/10 23:54:10;;;;;;;9.65;8.50;;;6.80;99.90;;;;;;5107613;28;20287;-76
2022/02/10 23:56:43;;;;;;;8.60;7.72;;;6.80;99.90;;;;;;5107110;27;20265;-76
2022/02/10 23:59:16;;;;;;;8.48;7.38;;;6.80;99.90;;;;;;5107472;27;20650;-78
